Reno, NV

12:02 AM PDT on July 06, 2015 (GMT -0700)
Ward 1 Reno, NV | | Change Station
CLOSE
Current Station
Personal Weather Station
Location: Reno, NV
Elevation: 4606 ft
Nearby Weather Stations

Elev 4606 ft 39.51 °N, 119.85 °W | Updated 4 seconds ago

Mostly Cloudy
Mostly Cloudy
74.0 °F
Feels Like 77 °F
N
0.0
Wind Variable Wind from SSE
Gusts 0.4 mph

Today
High -- | Low -- °F
--% Chance of Precip.
Yesterday
High -- | Low -- °F
Precip. -- in
5:38 AM 8:29 PM
Waning Gibbous, 78% visible
Pressure 29.95 in
Visibility 10.0 miles
Clouds Few 10000 ft
Scattered Clouds 17000 ft
Mostly Cloudy 25000 ft
Heat Index 77 °F
Dew Point 49 °F
Humidity 42%
Rainfall 0.00 in
Snow Depth Not available.
UV 0 out of 12
Pollen 4.20 out of 12
Air Quality Not available.
Flu Activity Not available.
METAR KRNO 060655Z 05007KT 10SM FEW100 SCT170 BKN250 23/11 A3013 RMK AO2 SLP141 T02330111

More Conditions Fewer Conditions

Pressure 29.95 in
Visibility 10.0 miles
Clouds Few 10000 ft
Scattered Clouds 17000 ft
Mostly Cloudy 25000 ft
Heat Index 77 °F
Dew Point 49 °F
Humidity 42%
Rainfall 0.00 in
Snow Depth Not available.
UV 0 out of 12
Pollen 4.20 out of 12
Air Quality Not available.
Flu Activity Not available.
METAR KRNO 060655Z 05007KT 10SM FEW100 SCT170 BKN250 23/11 A3013 RMK AO2 SLP141 T02330111

More Conditions Fewer Conditions

10-Day Weather Forecast

×

Almanac

Astronomy

Jul. 06, 2015 Rise Set
Actual Time
Civil Twilight
Nautical Twilight
Astronomical Twilight
Moon
Length of Visible Light
Length of Day
Tomorrow will be .
, % of the Moon is Illuminated

Today's Extremes

State Highs State Lows

Community

WunderPhotos

Upload Photos

1,835,503 photos uploaded!

WunderBlogs® & News

Nearby

Air Quality

  Air Quality AQ Index Pollutant
Not available.

Snow Depth

Station Depth Elevation

Earthquake Activity

City Distance Mag. Time & Date
Minimum magnitude displayed is 2.5.

Coastal Water Temperatures

Place Temperature

Stations

Nearby Weather Stations

Station Location Temp. Windchill Dew Point Humidity Wind Precip. Elev Updated Type